Tiempo atmosférico en la estación meteorológica de Escorca, Lluc, Illes Balears (490 m.)



Fecha
DESCASC
Temp. máxima en grados centígrados (hora)
DESCASC
Temp. mínima en grados centígrados (hora)
DESCASC
Temp. media en grados centígrados
DESCASC
Racha de viento máxima en m/sg (hora)
DESCASC
Velocidad máxima media en intervalos de 10 minutos(hora)
DESCASC
Precipitaciones diarias en mm
DESCASC
Precipitaciones de 00:00 a 06:00 en mm
DESCASC
Precipitaciones de 06:00 a 12:00 en mm
DESCASC
Precipitaciones de 12:00 a 18:00 en mm
DESCASC
Precipitaciones de 18:00 a 24:00 en mm
DESCASC
14-12-2019 17.2 (12:30) 4.7 (23:50) 11 10.83 (00:30) 2.78 (04:20) 0 0 0 0 0
13-12-2019 15.5 (13:50) 9 (00:00) 12.3 20.28 (20:10) 3.61 (19:40) 0 0 0 0 0
12-12-2019 11.7 (12:20) 6.8 (00:30) 9.3 10.56 (06:00) 2.78 (06:00) 0.4 0 0 0 0.4
11-12-2019 15.8 (13:30) -0.1 (00:00) 7.9 10.28 (19:40) 3.06 (20:50) 3.1 0 0 0.1 3
10-12-2019 14.5 (13:20) 1.7 (00:00) 8.1 13.61 (03:40) 2.5 (03:50) 0 0 0 0 0
09-12-2019 13.3 (12:20) 5.9 (00:00) 9.6 13.06 (10:20) 2.78 (11:50) 0 0 0 0 0
08-12-2019 15.6 (13:30) 0.7 (00:00) 8.2 2.5 (11:30) 0.56 (14:10) 0 0 0 0 0
07-12-2019 15.1 (13:30) 2.3 (00:00) 8.7 3.06 (14:00) 1.11 (14:00) 0 0 0 0 0
06-12-2019 14.9 (12:10) 3.6 (00:00) 9.2 3.33 (17:00) 0.56 (11:30) 0 0 0 0 0
05-12-2019 13.7 (11:40) 2.9 (00:00) 8.3 3.89 (15:20) 0.83 (15:10) 0 0 0 0 0
04-12-2019 -- (--) -- (--) -- -- (--) -- (--) -- -- 43.6 -- 0
03-12-2019 12.3 (22:20) 7.3 (00:00) 9.8 12.78 (22:10) 2.78 (22:40) 2.3 0.5 0 0 1.8
02-12-2019 10.6 (03:00) 8.7 (00:00) 9.7 6.39 (08:20) 1.67 (08:40) 7.1 2 5 0.1 0
01-12-2019 17.4 (12:20) 8.6 (00:00) 13 5.56 (01:00) 1.67 (13:50) 0 0 0 0 0
30-11-2019 19 (12:20) 5 (00:00) 12 11.39 (22:20) 3.61 (22:20) 0 0 0 0 0
29-11-2019 18.7 (13:20) 6 (00:00) 12.4 8.89 (00:50) 2.5 (00:30) 0 0 0 0 0
28-11-2019 17.5 (14:20) 4.7 (00:00) 11.1 8.61 (08:40) 1.94 (22:50) 0 0 0 0 0
27-11-2019 17.4 (11:50) 5.4 (00:00) 11.4 16.94 (00:20) 6.39 (00:20) 0 0 0 0 0
26-11-2019 19.3 (12:10) 4.1 (00:00) 11.7 15 (23:59) 5.28 (23:59) 0 0 0 0 0
25-11-2019 16 (13:50) 5.2 (00:00) 10.6 6.94 (06:30) 1.39 (02:20) 0 0 0 0 0
24-11-2019 10.8 (12:40) 7.4 (00:00) 9.1 11.11 (02:40) 2.78 (02:20) 0.1 0.1 0 0 0
23-11-2019 13.3 (11:50) 8.3 (00:00) 10.8 16.67 (16:50) 4.72 (08:20) 27.8 18.6 0.1 9.1 0
22-11-2019 -- (--) -- (--) -- -- (--) -- (--) -- -- -- 3.7 61.9
21-11-2019 -- (--) -- (--) -- -- (--) -- (--) -- -- -- -- --
20-11-2019 -- (--) -- (--) -- -- (--) -- (--) -- 0 0 -- --
19-11-2019 11.4 (14:50) 0 (00:00) 5.7 4.44 (00:10) 1.39 (15:20) 0.6 0.6 0 0 0
18-11-2019 9.9 (00:20) 6 (00:00) 7.9 8.33 (16:50) 2.5 (00:10) 19.2 4.9 8.7 3.5 2.1
17-11-2019 12.6 (11:00) 5 (00:00) 8.8 14.72 (02:30) 3.06 (03:10) 0 0 0 0 0
16-11-2019 8.2 (23:59) 2.2 (00:00) 5.2 12.78 (23:00) 3.89 (00:10) 14.3 5.3 2.9 5.9 0.2
15-11-2019 9.2 (12:10) 2 (00:00) 5.6 10.83 (07:00) 4.44 (23:20) 2.7 1.4 1.1 0.1 0.1

Gráficas

Temp. máximas Temp. mínimas Temp. medias Precipitaciones Rachas de viento máximas Velocidades máximas media en intervalos de 10 minutos

Datos horarios

Fecha y hora oficial Temperatura (ºC) Velocidad del viento (km/h) Dirección del viento Racha (km/h) Dirección de racha Precipitación (mm) Presión (hPa) Tendencia (hPa) Humedad (%)
2019-12-14 23:00:00 5.1 0 Calma -- -- 0 -- -- 88
2019-12-14 22:00:00 5.7 0 Calma -- -- 0 -- -- 87
2019-12-14 21:00:00 6.3 0 Calma 4 Sudeste 0 -- -- 85
2019-12-14 20:00:00 7.3 0 Calma 8 Sudeste 0 -- -- 81
2019-12-14 19:00:00 9 0 Calma -- -- 0 -- -- 77
2019-12-14 18:00:00 10.4 0 Calma 6 Sur 0 -- -- 71
2019-12-14 17:00:00 12.2 0 Calma 8 Sur 0 -- -- 63
2019-12-14 16:00:00 13.7 0 Calma 12 Noroeste 0 -- -- 54
2019-12-14 15:00:00 15.7 0 Calma 17 Sudeste 0 -- -- 44
2019-12-14 14:00:00 16.6 5 Sur 18 Sudeste 0 -- -- 48
2019-12-14 13:00:00 16.8 3 Sur 21 Sudeste 0 -- -- 45
2019-12-14 12:00:00 16.9 5 Sur 26 Este 0 -- -- 45
2019-12-14 11:00:00 16.5 3 Sur 24 Sudeste 0 -- -- 42
2019-12-14 10:00:00 14.6 4 Sur 19 Sudeste 0 -- -- 54
2019-12-14 09:00:00 12.5 4 Sur 24 Sudeste 0 -- -- 58
2019-12-14 08:00:00 11.7 4 Sudeste 28 Este 0 -- -- 67
2019-12-14 07:00:00 11.6 2 Sudeste 26 Sudeste 0 -- -- 72
2019-12-14 06:00:00 12 4 Sudeste 20 Sudeste 0 -- -- 72
2019-12-14 05:00:00 12.5 6 Sudeste 31 Sur 0 -- -- 64
2019-12-14 04:00:00 12.8 7 Sudeste 33 Sudeste 0 -- -- 66
2019-12-14 03:00:00 12.9 8 Sur 31 Sudeste 0 -- -- 69
2019-12-14 02:00:00 13.2 7 Sur 35 Sudeste 0 -- -- 68
2019-12-14 01:00:00 13.4 6 Sudeste 39 Sur 0 -- -- 66
2019-12-14 00:00:00 13.9 7 Sudeste 28 Sur 0 -- -- 61
2019-12-13 23:00:00 14.5 5 Sudeste 42 Sur 0 -- -- 58
2019-12-13 22:00:00 15 6 Sur 43 Sur 0 -- -- 54
2019-12-13 21:00:00 15.3 8 Sur 73 Sur 0 -- -- 54
2019-12-13 20:00:00 14.6 10 Sudeste 59 Sudoeste 0 -- -- 57
2019-12-13 19:00:00 14.3 9 Sur 53 Sudeste 0 -- -- 58
2019-12-13 18:00:00 14.8 11 Sudeste 57 Sur 0 -- -- 54
2019-12-13 17:00:00 15 10 Sudeste 59 Sudeste 0 -- -- 52
2019-12-13 16:00:00 15 12 Sudeste 48 Sur 0 -- -- 54
2019-12-13 15:00:00 14.8 10 Sudeste 55 Sudeste 0 -- -- 56
2019-12-13 14:00:00 15.2 12 Sudeste 43 Sudeste 0 -- -- 56
2019-12-13 13:00:00 15 10 Sudeste 45 Sur 0 -- -- 59
2019-12-13 12:00:00 14.5 8 Sur 37 Sudoeste 0 -- -- 64
2019-12-13 11:00:00 15 5 Sur 41 Sudoeste 0 -- -- 60
2019-12-13 10:00:00 14.5 6 Sur 42 Sudoeste 0 -- -- 61
2019-12-13 09:00:00 14 4 Sudeste 26 Sur 0 -- -- 61
2019-12-13 08:00:00 14 2 Sur 35 Noroeste 0 -- -- 58
2019-12-13 07:00:00 12.8 4 Sudeste 25 Sudoeste 0 -- -- 62
2019-12-13 06:00:00 12.7 4 Sudeste 28 Sur 0 -- -- 62
2019-12-13 05:00:00 12.4 4 Sudeste 45 Este 0 -- -- 61
2019-12-13 04:00:00 12.2 8 Sur 39 Sudeste 0 -- -- 63
2019-12-13 03:00:00 11.2 6 Sur 40 Sur 0 -- -- 69
2019-12-13 02:00:00 11.1 4 Sur 28 Sur 0 -- -- 67
2019-12-13 01:00:00 10.2 5 Sur 26 Sudeste 0 -- -- 72
2019-12-13 00:00:00 9 3 Sur 27 Sudeste 0 -- -- 74
2019-12-12 23:00:00 9.1 6 Sur 30 Sudeste 0.2 -- -- 77
2019-12-12 22:00:00 8.9 6 Sur 38 Sudoeste 0.2 -- -- 81
2019-12-12 21:00:00 9.6 6 Sudeste 24 Sudeste 0 -- -- 76
2019-12-12 20:00:00 9.5 0 Calma 27 Sudoeste 0 -- -- 69
2019-12-12 19:00:00 9.1 0 Calma 22 Sudoeste 0 -- -- 68
2019-12-12 18:00:00 8.2 5 Oeste 21 Sudoeste 0 -- -- 67
2019-12-12 17:00:00 8.7 0 Calma 20 Sur 0 -- -- 67
2019-12-12 16:00:00 9.8 4 Sur 17 Nordeste 0 -- -- 61
2019-12-12 15:00:00 10.4 2 Sur 18 Sudeste 0 -- -- 61
2019-12-12 14:00:00 10.9 4 Sur 24 Sudeste 0 -- -- 59
2019-12-12 13:00:00 10.8 5 Sudeste 24 Sudeste 0 -- -- 59
2019-12-12 12:00:00 10.7 5 Sur 26 Sudeste 0 -- -- 60
2019-12-12 11:00:00 9.3 5 Sur 27 Sur 0 -- -- 67
2019-12-12 10:00:00 9.1 5 Sur 24 Sur 0 -- -- 65
2019-12-12 09:00:00 8.8 6 Sudeste 35 Sur 0 -- -- 62
2019-12-12 08:00:00 8.7 4 Sudeste 31 Sur 0 -- -- 65
2019-12-12 07:00:00 8.1 5 Sudeste 36 Sudeste 0 -- -- 63
2019-12-12 06:00:00 8.7 10 Sur 38 Sur 0 -- -- 58
2019-12-12 05:00:00 8.4 7 Sudeste 27 Este 0 -- -- 57
2019-12-12 04:00:00 8.4 7 Sudeste 35 Sudeste 0 -- -- 68
2019-12-12 03:00:00 7.7 6 Sudeste 27 Sur 0 -- -- 67
2019-12-12 02:00:00 7.6 6 Sur 30 Sudeste 0 -- -- 68
2019-12-12 01:00:00 7.2 4 Sudeste 15 Sudeste 0 -- -- 82
2019-12-12 00:00:00 7 3 Sur 21 Oeste 0 -- -- 89
2019-12-11 23:00:00 6.9 0 Calma 12 Este 0.7 -- -- 89
2019-12-11 22:00:00 7.9 0 Calma 20 Sudoeste 1 -- -- 87
2019-12-11 21:00:00 8.4 2 Sudeste 28 Este 0.2 -- -- 84
2019-12-11 20:00:00 8.7 6 Sudeste 37 Oeste 0.1 -- -- 85
2019-12-11 19:00:00 8.5 9 Sudeste 35 Sudeste 1 -- -- 86
2019-12-11 18:00:00 9.3 9 Sur 34 Sudeste 0.1 -- -- 74
2019-12-11 17:00:00 10.5 2 Sudeste 19 Sudeste 0 -- -- 58
2019-12-11 16:00:00 11.1 3 Sudeste 16 Sudeste 0 -- -- 61
2019-12-11 15:00:00 12.8 0 Calma 9 Sur 0 -- -- 59
2019-12-11 14:00:00 13.5 0 Calma 14 Sudoeste 0 -- -- 46
2019-12-11 13:00:00 13.5 2 Norte 19 Sur 0 -- -- 37
2019-12-11 12:00:00 12.5 0 Calma 5 Sur 0 -- -- 64
2019-12-11 11:00:00 9.3 0 Calma -- -- 0 -- -- 90
2019-12-11 10:00:00 5.1 0 Calma -- -- 0 -- -- 90
2019-12-11 09:00:00 0.5 0 Calma -- -- 0 -- -- 90
2019-12-11 08:00:00 0 0 Calma -- -- 0 -- -- 90
2019-12-11 07:00:00 0 0 Calma -- -- 0 -- -- 90
2019-12-11 06:00:00 0.1 0 Calma -- -- 0 -- -- 90
2019-12-11 05:00:00 0 0 Calma -- -- 0 -- -- 90
2019-12-11 04:00:00 0.2 0 Calma -- -- 0 -- -- 90
2019-12-11 03:00:00 0.6 0 Calma -- -- 0 -- -- 90
2019-12-11 02:00:00 0.9 0 Calma -- -- 0 -- -- 90
2019-12-11 01:00:00 1.2 0 Calma -- -- 0 -- -- 90
2019-12-11 00:00:00 1.8 0 Calma -- -- 0 -- -- 90
2019-12-10 23:00:00 2.5 0 Calma -- -- 0 -- -- 89
2019-12-10 22:00:00 2.8 0 Calma -- -- 0 -- -- 89
2019-12-10 21:00:00 3.6 0 Calma -- -- 0 -- -- 89
2019-12-10 20:00:00 4.2 0 Calma 4 Sur 0 -- -- 88
2019-12-10 19:00:00 3.7 0 Calma -- -- 0 -- -- 86
2019-12-10 18:00:00 4.6 0 Calma -- -- 0 -- -- 84
2019-12-10 17:00:00 6.1 0 Calma -- -- 0 -- -- 80
2019-12-10 16:00:00 7.8 0 Calma -- -- 0 -- -- 65
2019-12-10 15:00:00 11.1 0 Calma 10 Sudoeste 0 -- -- 46
2019-12-10 14:00:00 13.4 5 Sudoeste 18 Sudoeste 0 -- -- 34
2019-12-10 13:00:00 14 3 Sudoeste 16 Sudoeste 0 -- -- 33
2019-12-10 12:00:00 13.3 0 Calma 9 Nordeste 0 -- -- 51
2019-12-10 11:00:00 11.5 3 Sudoeste 12 Sudeste 0 -- -- 65
2019-12-10 10:00:00 8.9 0 Calma 22 Sudeste 0 -- -- 73
2019-12-10 09:00:00 8.7 6 Sudeste 25 Este 0 -- -- 74
2019-12-10 08:00:00 8.6 3 Sudeste 24 Sudeste 0 -- -- 76
2019-12-10 07:00:00 8.5 7 Sudeste 28 Sudeste 0 -- -- 77
2019-12-10 06:00:00 8.6 6 Sur 31 Sudeste 0 -- -- 79
2019-12-10 05:00:00 8.7 8 Sudeste 41 Sur 0 -- -- 76
2019-12-10 04:00:00 8.8 9 Sudeste 49 Sur 0 -- -- 76
2019-12-10 03:00:00 8.7 8 Sudeste 31 Sur 0 -- -- 77
2019-12-10 02:00:00 8.9 5 Sudeste 26 Sudeste 0 -- -- 79
2019-12-10 01:00:00 9 5 Sur 29 Sur 0 -- -- 78
2019-12-10 00:00:00 8.9 6 Sudeste 23 Sur 0 -- -- 75
2019-12-09 23:00:00 9.2 6 Sur 38 Este 0 -- -- 73
2019-12-09 22:00:00 9.5 8 Sur 32 Este 0 -- -- 71
2019-12-09 21:00:00 10 7 Sudeste 43 Sudoeste 0 -- -- 69
2019-12-09 20:00:00 10.2 6 Sur 33 Sur 0 -- -- 71
2019-12-09 19:00:00 10.2 6 Sudeste 34 Sur 0 -- -- 70
2019-12-09 18:00:00 10.2 7 Sudeste 31 Sudeste 0 -- -- 66
2019-12-09 17:00:00 10 9 Sur 37 Sur 0 -- -- 65
2019-12-09 16:00:00 10.2 8 Sudeste 32 Sudoeste 0 -- -- 64
2019-12-09 15:00:00 10.6 9 Sudeste 41 Sur 0 -- -- 60
2019-12-09 14:00:00 -- -- -- -- -- -- -- -- --
2019-12-09 13:00:00 12.8 6 Sur 46 Sur 0 -- -- 47
2019-12-09 12:00:00 13 9 Sur 35 Sudeste 0 -- -- 43
2019-12-09 11:00:00 12.5 8 Sudeste 47 Sur 0 -- -- 50
2019-12-09 10:00:00 11.2 9 Sur 32 Sudeste 0 -- -- 53
2019-12-09 09:00:00 8.1 3 Sudeste 12 Sur 0 -- -- 86
2019-12-09 08:00:00 7.4 0 Calma 17 Sur 0 -- -- 84
2019-12-09 07:00:00 9.8 3 Sur 23 Sur 0 -- -- 76
2019-12-09 06:00:00 10.3 3 Sudeste 25 Sudeste 0 -- -- 81
2019-12-09 05:00:00 10.1 5 Sudeste 27 Este 0 -- -- 88
2019-12-09 04:00:00 8.5 0 Calma 8 Sudeste 0 -- -- 90
2019-12-09 03:00:00 9.4 0 Calma 10 Sudoeste 0 -- -- 90
2019-12-09 02:00:00 8.7 0 Calma 21 Sudoeste 0 -- -- 90
2019-12-09 01:00:00 6.7 0 Calma -- -- 0 -- -- 90
2019-12-09 00:00:00 5.9 0 Calma -- -- 0 -- -- 90
2019-12-08 23:00:00 4.9 0 Calma -- -- 0 -- -- 90
2019-12-08 22:00:00 3.7 0 Calma -- -- 0 -- -- 89
2019-12-08 21:00:00 4 0 Calma -- -- 0 -- -- 89
2019-12-08 20:00:00 4.9 0 Calma -- -- 0 -- -- 89
2019-12-08 19:00:00 5.7 0 Calma -- -- 0 -- -- 88
2019-12-08 18:00:00 7.1 0 Calma -- -- 0 -- -- 87
2019-12-08 17:00:00 8.2 0 Calma -- -- 0 -- -- 84
2019-12-08 16:00:00 9.9 0 Calma -- -- 0 -- -- 77
2019-12-08 15:00:00 12.8 0 Calma 9 Sudoeste 0 -- -- 66
2019-12-08 14:00:00 14.8 0 Calma 8 Sudoeste 0 -- -- 58
2019-12-08 13:00:00 15.1 0 Calma 8 Noroeste 0 -- -- 52
2019-12-08 12:00:00 14.7 0 Calma 9 Oeste 0 -- -- 59
2019-12-08 11:00:00 12.1 0 Calma -- -- 0 -- -- 88
2019-12-08 10:00:00 7.3 0 Calma -- -- 0 -- -- 90
2019-12-08 09:00:00 1.8 0 Calma -- -- 0 -- -- 90
2019-12-08 08:00:00 0.8 0 Calma -- -- 0 -- -- 90
2019-12-08 07:00:00 1 0 Calma -- -- 0 -- -- 90
2019-12-08 06:00:00 1.2 0 Calma -- -- 0 -- -- 90
2019-12-08 05:00:00 1.3 0 Calma -- -- 0 -- -- 90
2019-12-08 04:00:00 1.6 0 Calma -- -- 0 -- -- 90
2019-12-08 03:00:00 1.6 0 Calma -- -- 0 -- -- 90
2019-12-08 02:00:00 1.8 0 Calma -- -- 0 -- -- 90
2019-12-08 01:00:00 2 0 Calma -- -- 0 -- -- 90
2019-12-08 00:00:00 2.4 0 Calma -- -- 0 -- -- 89
2019-12-07 23:00:00 2.7 0 Calma -- -- 0 -- -- 89
2019-12-07 22:00:00 3.3 0 Calma -- -- 0 -- -- 89
2019-12-07 21:00:00 3.9 0 Calma -- -- 0 -- -- 89
2019-12-07 20:00:00 4.6 0 Calma -- -- 0 -- -- 88
2019-12-07 19:00:00 5.5 0 Calma -- -- 0 -- -- 87
2019-12-07 18:00:00 6.8 0 Calma -- -- 0 -- -- 87
2019-12-07 17:00:00 7.9 0 Calma 0 Calma 0 -- -- 83
2019-12-07 16:00:00 9.6 0 Calma 7 Sur 0 -- -- 74
2019-12-07 15:00:00 12.7 0 Calma 9 Sudoeste 0 -- -- 62
2019-12-07 14:00:00 14.7 4 Sudoeste 11 Sudoeste 0 -- -- 59
2019-12-07 13:00:00 14.5 0 Calma 8 Sudeste 0 -- -- 67
2019-12-07 12:00:00 12.9 0 Calma 10 Sur 0 -- -- 75
2019-12-07 11:00:00 11.7 0 Calma -- -- 0 -- -- 89
2019-12-07 10:00:00 8.5 0 Calma -- -- 0 -- -- 90
2019-12-07 09:00:00 3.9 0 Calma -- -- 0 -- -- 90
2019-12-07 08:00:00 4.3 0 Calma 4 Este 0 -- -- 90
2019-12-07 07:00:00 4.6 0 Calma -- -- 0 -- -- 90
2019-12-07 06:00:00 4.4 0 Calma -- -- 0 -- -- 90
2019-12-07 05:00:00 2.8 0 Calma -- -- 0 -- -- 90
2019-12-07 04:00:00 3.3 0 Calma -- -- 0 -- -- 90
2019-12-07 03:00:00 3.5 0 Calma -- -- 0 -- -- 90
2019-12-07 02:00:00 3.9 0 Calma -- -- 0 -- -- 89
2019-12-07 01:00:00 4.3 0 Calma -- -- 0 -- -- 89
2019-12-07 00:00:00 5.1 0 Calma -- -- 0 -- -- 89
2019-12-06 23:00:00 5.8 0 Calma -- -- 0 -- -- 89
2019-12-06 22:00:00 7 0 Calma -- -- 0 -- -- 89
2019-12-06 21:00:00 8.5 0 Calma -- -- 0 -- -- 89
2019-12-06 20:00:00 9.1 0 Calma -- -- 0 -- -- 89
2019-12-06 19:00:00 9 0 Calma -- -- 0 -- -- 89
2019-12-06 18:00:00 9.6 0 Calma 8 Sur 0 -- -- 89
2019-12-06 17:00:00 10.7 0 Calma 12 Sudeste 0 -- -- 88
2019-12-06 16:00:00 10.4 0 Calma -- -- 0 -- -- 86
2019-12-06 15:00:00 11.4 0 Calma -- -- 0 -- -- 82
2019-12-06 14:00:00 12.4 0 Calma 8 Sudoeste 0 -- -- 78
2019-12-06 13:00:00 14 0 Calma 9 Oeste 0 -- -- 71
2019-12-06 12:00:00 14.5 0 Calma 8 Noroeste 0 -- -- 76
2019-12-06 11:00:00 12.6 0 Calma 5 Sudoeste 0 -- -- 90
2019-12-06 10:00:00 7.8 0 Calma -- -- 0 -- -- 90
2019-12-06 09:00:00 4.7 0 Calma -- -- 0 -- -- 90
2019-12-06 08:00:00 4.8 0 Calma -- -- 0 -- -- 90
2019-12-06 07:00:00 5.1 0 Calma -- -- 0 -- -- 90
2019-12-06 06:00:00 4.8 0 Calma -- -- 0 -- -- 90
2019-12-06 05:00:00 4.5 0 Calma -- -- 0 -- -- 90
2019-12-06 04:00:00 4 0 Calma -- -- 0 -- -- 90
2019-12-06 03:00:00 4.1 0 Calma -- -- 0 -- -- 90
2019-12-06 02:00:00 4.1 0 Calma -- -- 0 -- -- 90
2019-12-06 01:00:00 3.8 0 Calma -- -- 0 -- -- 90
2019-12-06 00:00:00 3.9 0 Calma -- -- 0 -- -- 90
2019-12-05 23:00:00 4.4 0 Calma -- -- 0 -- -- 90
2019-12-05 22:00:00 5 0 Calma -- -- 0 -- -- 89
2019-12-05 21:00:00 5.5 0 Calma -- -- 0 -- -- 89
2019-12-05 20:00:00 6.3 0 Calma -- -- 0 -- -- 89
2019-12-05 19:00:00 7.2 0 Calma -- -- 0 -- -- 88
2019-12-05 18:00:00 8.4 0 Calma -- -- 0 -- -- 88
2019-12-05 17:00:00 10.2 0 Calma -- -- 0 -- -- 86
2019-12-05 16:00:00 11.6 0 Calma 14 Este 0 -- -- 79
2019-12-05 15:00:00 12.2 0 Calma 10 Sudeste 0 -- -- 76
2019-12-05 14:00:00 11.5 0 Calma -- -- 0 -- -- 86
2019-12-05 13:00:00 11.7 0 Calma -- -- 0 -- -- 80
2019-12-05 12:00:00 12.1 0 Calma -- -- -- -- -- 76
2019-12-05 11:00:00 10.6 3 Noroeste 9 Noroeste 0 -- -- 90
2019-12-05 10:00:00 8.9 0 Calma -- -- 0 -- -- 90
2019-12-05 09:00:00 3.8 0 Calma -- -- 0 -- -- 90
2019-12-05 08:00:00 3.1 0 Calma -- -- 0 -- -- 90
2019-12-05 07:00:00 3.1 0 Calma -- -- 0 -- -- 90
2019-12-05 06:00:00 3.3 0 Calma -- -- 0 -- -- 90
2019-12-05 05:00:00 3.7 0 Calma -- -- 0 -- -- 90
2019-12-05 04:00:00 4 0 Calma -- -- 0 -- -- 90
2019-12-05 03:00:00 4.4 0 Calma -- -- 0 -- -- 90
2019-12-05 02:00:00 4.9 0 Calma -- -- 0 -- -- 90
2019-12-05 01:00:00 5.6 0 Calma -- -- 0 -- -- 90
2019-12-05 00:00:00 5.9 0 Calma 7 Sudeste 0 -- -- 90
2019-12-04 23:00:00 5.6 0 Calma 7 Este 0 -- -- 90
2019-12-04 22:00:00 5.4 0 Calma -- -- 0 -- -- 90
2019-12-04 21:00:00 5.7 0 Calma 6 Este 0 -- -- 90
2019-12-04 20:00:00 6.4 0 Calma 9 Nordeste 0 -- -- 90
2019-12-04 19:00:00 -- -- -- -- -- -- -- -- --
2019-12-04 18:00:00 -- -- -- -- -- -- -- -- --
2019-12-04 17:00:00 -- -- -- -- -- -- -- -- --
2019-12-04 16:00:00 -- -- -- -- -- -- -- -- --
2019-12-04 15:00:00 -- -- -- -- -- -- -- -- --
2019-12-04 14:00:00 -- -- -- -- -- -- -- -- --
2019-12-04 13:00:00 -- -- -- -- -- -- -- -- --
2019-12-04 12:00:00 -- -- -- -- -- -- -- -- --
2019-12-04 11:00:00 -- -- -- -- -- -- -- -- --
2019-12-04 10:00:00 -- -- -- -- -- -- -- -- --
2019-12-04 09:00:00 -- -- -- -- -- -- -- -- --
2019-12-04 08:00:00 -- -- -- -- -- -- -- -- --
2019-12-04 07:00:00 -- -- -- -- -- -- -- -- --
2019-12-04 06:00:00 -- -- -- -- -- -- -- -- --
2019-12-04 05:00:00 -- -- -- -- -- -- -- -- --
2019-12-04 04:00:00 9.5 4 Sudeste 54 Sur 17.9 -- -- 89
2019-12-04 03:00:00 11.8 7 Sudeste 55 Sudeste 24.2 -- -- 89
2019-12-04 02:00:00 12.2 8 Sudeste 54 Este 2.9 -- -- 89
2019-12-04 01:00:00 12.4 9 Este -- -- -- -- -- 89
2019-12-04 00:00:00 12.2 9 Sudeste 36 Sudeste 1 -- -- 89
2019-12-03 23:00:00 12.1 5 Sudeste 46 Sudeste 0.8 -- -- 89
2019-12-03 22:00:00 12.1 9 Sudeste 33 Sur 0 -- -- 88
2019-12-03 21:00:00 11.9 7 Sudeste 42 Este 0 -- -- 86
2019-12-03 20:00:00 11.9 9 Sudeste 35 Sudeste 0 -- -- 82
2019-12-03 19:00:00 11.2 6 Sudeste 28 Sudeste 0 -- -- 82
2019-12-03 18:00:00 10.6 4 Sudeste 24 Sur 0 -- -- 79
2019-12-03 17:00:00 10.2 3 Sudeste 26 Este 0 -- -- 85
2019-12-03 16:00:00 10.2 2 Este 16 Sudoeste 0 -- -- 81
2019-12-03 15:00:00 10.8 0 Calma 15 Este 0 -- -- 78
2019-12-03 14:00:00 10.2 4 Este 21 Sudeste 0 -- -- 80
2019-12-03 13:00:00 9.4 0 Calma 23 Oeste 0 -- -- 80
2019-12-03 12:00:00 8.6 5 Este 24 Sudoeste 0 -- -- 80
2019-12-03 11:00:00 8.2 5 Sudeste 22 Sudoeste 0 -- -- 80
2019-12-03 10:00:00 7.8 0 Calma 17 Sudoeste 0 -- -- 82
2019-12-03 09:00:00 7.7 0 Calma 17 Sudoeste 0 -- -- 82
2019-12-03 08:00:00 7.6 3 Sur 22 Oeste 0 -- -- 83
2019-12-03 07:00:00 7.5 2 Sudoeste 20 Sur 0 -- -- 84
2019-12-03 06:00:00 7.4 4 Sudoeste 18 Sudoeste 0 -- -- 87
2019-12-03 05:00:00 7.3 3 Oeste 15 Norte 0 -- -- 88
2019-12-03 04:00:00 7.5 0 Calma 14 Oeste 0.4 -- -- 88
2019-12-03 03:00:00 8.1 6 Sudoeste 22 Sur 0.1 -- -- 84
2019-12-03 02:00:00 8.6 4 Oeste 19 Oeste 0 -- -- 80
2019-12-03 01:00:00 8.8 0 Calma 17 Sudoeste 0 -- -- 80
2019-12-03 00:00:00 8.9 3 Oeste 19 Norte 0 -- -- 79
2019-12-02 23:00:00 8.9 2 Sur 17 Oeste 0 -- -- 79
2019-12-02 22:00:00 9.1 0 Calma 16 Norte 0 -- -- 81
2019-12-02 21:00:00 9.2 2 Oeste 16 Este 0 -- -- 80
2019-12-02 20:00:00 9.1 0 Calma 20 Sudeste 0 -- -- 81
2019-12-02 19:00:00 9 4 Sudoeste 13 Sudoeste 0 -- -- 80
2019-12-02 18:00:00 9 3 Oeste 12 Sudoeste 0 -- -- 83
2019-12-02 17:00:00 9.3 0 Calma 13 Sudoeste 0 -- -- 81
2019-12-02 16:00:00 9.6 5 Nordeste 18 Este 0 -- -- 78
2019-12-02 15:00:00 9.8 0 Calma 17 Sudeste 0 -- -- 81
2019-12-02 14:00:00 9.6 4 Sudeste 21 Este 0.1 -- -- 82
2019-12-02 13:00:00 9.8 0 Calma 15 Nordeste 0 -- -- 83
2019-12-02 12:00:00 9.6 3 Este 18 Norte 0 -- -- 86
2019-12-02 11:00:00 9.6 2 Este 20 Este 0 -- -- 89
2019-12-02 10:00:00 9.7 0 Calma 22 Este 0.1 -- -- 90
2019-12-02 09:00:00 9.5 4 Sudeste 23 Sudeste 0 -- -- 90
2019-12-02 08:00:00 9.7 4 Nordeste 19 Nordeste 0.3 -- -- 90
2019-12-02 07:00:00 10.1 0 Calma 16 Sudeste 4.6 -- -- 89
2019-12-02 06:00:00 10.2 0 Calma 13 Este 1.9 -- -- 89
2019-12-02 05:00:00 10.4 0 Calma 10 Este 0.1 -- -- 89
2019-12-02 04:00:00 10.5 3 Norte 8 Noroeste 0 -- -- 90
2019-12-02 03:00:00 10.5 0 Calma 7 Sudoeste 0 -- -- 90
2019-12-02 02:00:00 10.2 0 Calma -- -- 0 -- -- 90
2019-12-02 01:00:00 10.4 0 Calma -- -- 0 -- -- 90
2019-12-02 00:00:00 10 0 Calma -- -- 0 -- -- 90
2019-12-01 23:00:00 10 0 Calma -- -- 0 -- -- 90
2019-12-01 22:00:00 9.4 0 Calma -- -- 0 -- -- 89
2019-12-01 21:00:00 8.7 0 Calma -- -- 0 -- -- 89
2019-12-01 20:00:00 9.6 0 Calma -- -- 0 -- -- 89
2019-12-01 19:00:00 10.4 0 Calma 5 Este 0 -- -- 87
2019-12-01 18:00:00 10.9 0 Calma -- -- 0 -- -- 86
2019-12-01 17:00:00 12.1 0 Calma 8 Sur 0 -- -- 84
2019-12-01 16:00:00 12.9 0 Calma 13 Sudeste 0 -- -- 78
2019-12-01 15:00:00 15.1 3 Sur 17 Sudeste 0 -- -- 71
2019-12-01 14:00:00 14.6 2 Sudeste 19 Este 0 -- -- 67
2019-12-01 13:00:00 16 3 Sudoeste 16 Sudoeste 0 -- -- 66
2019-12-01 12:00:00 16.3 0 Calma 10 Este 0 -- -- 66
2019-12-01 11:00:00 16.2 0 Calma 10 Sur 0 -- -- 68
2019-12-01 10:00:00 14.3 0 Calma 13 Este 0 -- -- 73
2019-12-01 09:00:00 10.1 0 Calma 6 Oeste 0 -- -- 89
2019-12-01 08:00:00 9.5 0 Calma 13 Sudeste 0 -- -- 88
2019-12-01 07:00:00 9.6 2 Sudeste 15 Este 0 -- -- 88
2019-12-01 06:00:00 10.1 0 Calma 14 Este 0 -- -- 87
2019-12-01 05:00:00 10.9 6 Este 15 Nordeste 0 -- -- 88
2019-12-01 04:00:00 11.2 0 Calma 14 Sudeste 0 -- -- 86
2019-12-01 03:00:00 11.1 5 Este 11 Nordeste 0 -- -- 85
2019-12-01 02:00:00 11.7 3 Este 13 Este 0 -- -- 74
2019-12-01 01:00:00 12 2 Sur 20 Sur 0 -- -- 62
2019-12-01 00:00:00 12.6 8 Sudoeste 29 Sudoeste 0 -- -- 56
2019-11-30 23:00:00 14.8 12 Sudoeste 41 Sudoeste 0 -- -- 46
2019-11-30 22:00:00 12.7 9 Sudoeste 32 Oeste 0 -- -- 66
2019-11-30 21:00:00 8.6 0 Calma 4 Sudoeste 0 -- -- 88
2019-11-30 20:00:00 10 0 Calma 6 Este 0 -- -- 85
2019-11-30 19:00:00 12.1 0 Calma 13 Sudeste 0 -- -- 78
2019-11-30 18:00:00 12.4 0 Calma 15 Sur 0 -- -- 82
2019-11-30 17:00:00 13.3 4 Sudeste 13 Sudeste 0 -- -- 83
2019-11-30 16:00:00 14.4 0 Calma 12 Sudeste 0 -- -- 78
2019-11-30 15:00:00 17.1 0 Calma 10 Sudoeste 0 -- -- 64
2019-11-30 14:00:00 17.9 3 Sur 13 Sur 0 -- -- 61
2019-11-30 13:00:00 18.3 3 Sur 13 Sur 0 -- -- 54
2019-11-30 12:00:00 17.2 0 Calma 8 Sudoeste 0 -- -- 47
2019-11-30 11:00:00 15.8 0 Calma 7 Oeste 0 -- -- 66
2019-11-30 10:00:00 12 0 Calma -- -- 0 -- -- 90
2019-11-30 09:00:00 6.5 0 Calma -- -- 0 -- -- 90
2019-11-30 08:00:00 5.1 0 Calma -- -- 0 -- -- 90
2019-11-30 07:00:00 5.7 0 Calma -- -- 0 -- -- 90
2019-11-30 06:00:00 6.4 0 Calma -- -- 0 -- -- 90
2019-11-30 05:00:00 7.4 0 Calma -- -- 0 -- -- 90
2019-11-30 04:00:00 7.7 0 Calma -- -- 0 -- -- 90
2019-11-30 03:00:00 7.5 0 Calma -- -- 0 -- -- 90
2019-11-30 02:00:00 7.3 0 Calma -- -- 0 -- -- 90
2019-11-30 01:00:00 7.1 0 Calma 6 Este 0 -- -- 90
2019-11-30 00:00:00 6.9 0 Calma 7 Este 0 -- -- 90
2019-11-29 23:00:00 6.6 0 Calma -- -- 0 -- -- 90
2019-11-29 22:00:00 6 0 Calma -- -- 0 -- -- 89
2019-11-29 21:00:00 6.4 0 Calma -- -- 0 -- -- 89
2019-11-29 20:00:00 7.2 0 Calma -- -- 0 -- -- 88
2019-11-29 19:00:00 8.3 0 Calma -- -- 0 -- -- 86
2019-11-29 18:00:00 9.8 0 Calma -- -- 0 -- -- 84
2019-11-29 17:00:00 11.4 0 Calma -- -- 0 -- -- 80
2019-11-29 16:00:00 13 0 Calma 6 Sur 0 -- -- 72
2019-11-29 15:00:00 16.1 0 Calma 14 Sudeste 0 -- -- 58
2019-11-29 14:00:00 17.4 4 Sur 15 Sur 0 -- -- 50
2019-11-29 13:00:00 18.3 3 Sur 19 Sudoeste 0 -- -- 46
2019-11-29 12:00:00 17.6 3 Sur 13 Sudeste 0 -- -- 47
2019-11-29 11:00:00 17.6 2 Sur 11 Sudoeste 0 -- -- 46
2019-11-29 10:00:00 11.6 0 Calma 9 Sudeste 0 -- -- 77
2019-11-29 09:00:00 10 0 Calma 9 Sur 0 -- -- 84
2019-11-29 08:00:00 7.9 0 Calma 3 Sur 0 -- -- 88
2019-11-29 07:00:00 7.5 0 Calma 4 Sudoeste 0 -- -- 89
2019-11-29 06:00:00 7 0 Calma 3 Sudoeste 0 -- -- 88
2019-11-29 05:00:00 7.4 0 Calma -- -- 0 -- -- 86
2019-11-29 04:00:00 8.7 0 Calma 3 Sur 0 -- -- 84
2019-11-29 03:00:00 9.7 0 Calma 19 Sudeste 0 -- -- 76
2019-11-29 02:00:00 10.8 2 Sur 24 Norte 0 -- -- 67
2019-11-29 01:00:00 12.7 0 Calma 32 Oeste 0 -- -- 56
2019-11-29 00:00:00 12.2 0 Calma 22 Norte 0 -- -- 61
2019-11-28 23:00:00 11.4 3 Sudoeste 25 Oeste 0 -- -- 65
2019-11-28 22:00:00 7.5 0 Calma 9 Oeste 0 -- -- 82
2019-11-28 21:00:00 8 2 Sudoeste 14 Sudoeste 0 -- -- 80
2019-11-28 20:00:00 8 0 Calma 10 Este 0 -- -- 81
2019-11-28 19:00:00 8.8 0 Calma 11 Sudoeste 0 -- -- 77
2019-11-28 18:00:00 9.5 0 Calma 7 Este 0 -- -- 81
2019-11-28 17:00:00 10.5 0 Calma -- -- 0 -- -- 74
2019-11-28 16:00:00 12.5 0 Calma 8 Sur 0 -- -- 61
2019-11-28 15:00:00 15.1 0 Calma 12 Sudoeste 0 -- -- 47
2019-11-28 14:00:00 17.1 4 Sur 15 Sudeste 0 -- -- 39
2019-11-28 13:00:00 16.3 2 Este 17 Sur 0 -- -- 40
2019-11-28 12:00:00 16.5 4 Sur 23 Sudeste 0 -- -- 43
2019-11-28 11:00:00 15.6 3 Sur 17 Sur 0 -- -- 46
2019-11-28 10:00:00 14.3 4 Sur 21 Sur 0 -- -- 57
2019-11-28 09:00:00 12.1 5 Sur 31 Sur 0 -- -- 62
2019-11-28 08:00:00 9.9 4 Sur 13 Sudoeste 0 -- -- 82
2019-11-28 07:00:00 7.8 2 Sur 14 Sur 0 -- -- 90
2019-11-28 06:00:00 5.8 2 Sudeste 10 Sudeste 0 -- -- 90
2019-11-28 05:00:00 5.3 0 Calma 9 Este 0 -- -- 90
2019-11-28 04:00:00 5.2 0 Calma -- -- 0 -- -- 90
2019-11-28 03:00:00 5.7 0 Calma -- -- 0 -- -- 90
2019-11-28 02:00:00 5.3 0 Calma -- -- 0 -- -- 90
2019-11-28 01:00:00 4.9 0 Calma -- -- 0 -- -- 90
2019-11-28 00:00:00 5.4 0 Calma 4 Sudeste 0 -- -- 90
2019-11-27 23:00:00 6.1 0 Calma -- -- 0 -- -- 90
2019-11-27 22:00:00 5.8 0 Calma -- -- 0 -- -- 89
2019-11-27 21:00:00 6.5 0 Calma 5 Sudeste 0 -- -- 89
2019-11-27 20:00:00 7.1 0 Calma -- -- 0 -- -- 88
2019-11-27 19:00:00 8.3 0 Calma -- -- 0 -- -- 86
2019-11-27 18:00:00 9.9 0 Calma -- -- 0 -- -- 84
2019-11-27 17:00:00 12 0 Calma 4 Sudoeste 0 -- -- 80
2019-11-27 16:00:00 13.7 0 Calma 9 Este 0 -- -- 76
2019-11-27 15:00:00 15 2 Sur 18 Sur 0 -- -- 68
2019-11-27 14:00:00 14.7 4 Sudeste 20 Nordeste 0 -- -- 68
2019-11-27 06:00:00 16.2 5 Sudeste 46 Oeste 0 -- -- 51
2019-11-27 05:00:00 16.8 5 Sudoeste 37 Sudoeste 0 -- -- 51
2019-11-27 04:00:00 15.6 2 Sudoeste 37 Oeste 0 -- -- 56
2019-11-27 03:00:00 15.6 7 Sudoeste 35 Sudoeste 0 -- -- 56
2019-11-27 02:00:00 15.4 6 Sudoeste 39 Sudoeste 0 -- -- 56
2019-11-27 01:00:00 15.6 16 Sudoeste 61 Sudoeste 0 -- -- 50
2019-11-27 00:00:00 15.9 19 Oeste 54 Sudoeste 0 -- -- 48
2019-11-26 23:00:00 6.6 0 Calma 8 Sur 0 -- -- 89
2019-11-26 22:00:00 6.5 0 Calma 4 Este 0 -- -- 89
2019-11-26 21:00:00 7.2 0 Calma 9 Este 0 -- -- 88
2019-11-26 20:00:00 8 2 Este 8 Sudeste 0 -- -- 86
2019-11-26 19:00:00 9.8 3 Este 11 Este 0 -- -- 82
2019-11-26 18:00:00 10 0 Calma 8 Este 0 -- -- 82
2019-11-26 17:00:00 11.7 0 Calma 7 Sudeste 0 -- -- 83
2019-11-26 16:00:00 13.2 0 Calma 9 Sur 0 -- -- 76
2019-11-26 15:00:00 16.8 0 Calma 11 Sudeste 0 -- -- 63
2019-11-26 14:00:00 17.4 4 Sudeste 13 Sur 0 -- -- 59
2019-11-26 13:00:00 19 3 Oeste 8 Sudoeste 0 -- -- 45
2019-11-26 12:00:00 19.1 0 Calma 9 Sur 0 -- -- 46
2019-11-26 11:00:00 16.4 2 Sudoeste 17 Sur 0 -- -- 53
2019-11-26 10:00:00 13.7 0 Calma 23 Oeste 0 -- -- 72
2019-11-26 09:00:00 9.6 10 Oeste 30 Oeste 0 -- -- 90
2019-11-26 08:00:00 4.6 0 Calma -- -- 0 -- -- 90
2019-11-26 07:00:00 4.2 0 Calma -- -- 0 -- -- 90
2019-11-26 06:00:00 4.3 0 Calma -- -- 0 -- -- 90
2019-11-26 05:00:00 4.2 0 Calma -- -- 0 -- -- 90
2019-11-26 04:00:00 4.4 0 Calma -- -- 0 -- -- 90
2019-11-26 03:00:00 4.9 0 Calma 4 Nordeste 0 -- -- 90
2019-11-26 02:00:00 5.1 0 Calma -- -- 0 -- -- 90
2019-11-26 01:00:00 5.4 0 Calma 6 Sudoeste 0 -- -- 90
2019-11-26 00:00:00 5.4 0 Calma -- -- 0 -- -- 90
2019-11-25 23:00:00 5.5 0 Calma -- -- 0 -- -- 89
2019-11-25 22:00:00 5.8 0 Calma -- -- 0 -- -- 89
2019-11-25 21:00:00 6 0 Calma -- -- 0 -- -- 88
2019-11-25 20:00:00 6.5 0 Calma -- -- 0 -- -- 87
2019-11-25 19:00:00 7.5 0 Calma -- -- 0 -- -- 86
2019-11-25 18:00:00 8.7 0 Calma -- -- 0 -- -- 83
2019-11-25 17:00:00 10.4 0 Calma 6 Sudeste 0 -- -- 77
2019-11-25 16:00:00 12.5 0 Calma 15 Sudeste 0 -- -- 65
2019-11-25 15:00:00 14.8 4 Sudeste 20 Sudeste 0 -- -- 51
2019-11-25 14:00:00 15.8 4 Sudeste 24 Sur 0 -- -- 48
2019-11-25 13:00:00 15.7 5 Sur 24 Sudeste 0 -- -- 47
2019-11-25 12:00:00 14.6 3 Sur 14 Sur 0 -- -- 48
2019-11-25 11:00:00 13 3 Sudoeste 14 Sudeste 0 -- -- 57
2019-11-25 10:00:00 11.6 0 Calma 20 Este 0 -- -- 56
2019-11-25 09:00:00 10.1 3 Sur 13 Sur 0 -- -- 78
2019-11-25 08:00:00 7.5 0 Calma 17 Sur 0 -- -- 78
2019-11-25 07:00:00 9.1 2 Sur 25 Sudeste 0 -- -- 65
2019-11-25 06:00:00 9.7 5 Sur 24 Sur 0 -- -- 55
2019-11-25 05:00:00 8.8 5 Sur 24 Sur 0 -- -- 62
2019-11-25 04:00:00 8.3 2 Sur 14 Sudeste 0 -- -- 78
2019-11-25 03:00:00 8.6 3 Sur 22 Sudeste 0 -- -- 75
2019-11-25 02:00:00 8.7 4 Sudeste 20 Sudeste 0 -- -- 75
2019-11-25 01:00:00 8.8 4 Sudeste 21 Sur 0 -- -- 81
2019-11-25 00:00:00 8.3 2 Sudeste 19 Sur 0 -- -- 79
2019-11-24 23:00:00 7.8 3 Sur 15 Sudoeste 0 -- -- 82
2019-11-24 22:00:00 7.8 2 Sudoeste 16 Sudoeste 0 -- -- 86
2019-11-24 21:00:00 8.1 4 Sudoeste 20 Sur 0 -- -- 82
2019-11-24 20:00:00 8 0 Calma 13 Sudeste 0 -- -- 84
2019-11-24 19:00:00 8 3 Sudoeste 17 Sudoeste 0 -- -- 81
2019-11-24 18:00:00 8.7 2 Sudeste 20 Sur 0 -- -- 78
2019-11-24 17:00:00 9.3 4 Sudeste 19 Sur 0 -- -- 74
2019-11-24 16:00:00 9.9 4 Sudeste 27 Este 0 -- -- 74
2019-11-24 15:00:00 9.9 3 Sudeste 23 Sur 0 -- -- 74
2019-11-24 14:00:00 10.6 4 Sudeste 27 Sudeste 0 -- -- 72
2019-11-24 13:00:00 9.9 8 Sur 32 Sudeste 0 -- -- 70
2019-11-24 12:00:00 10.3 5 Sudeste 35 Sur 0 -- -- 71
2019-11-24 11:00:00 9.9 7 Sur 32 Sudeste 0 -- -- 71
2019-11-24 10:00:00 9.4 6 Sudeste 32 Sur 0 -- -- 71
2019-11-24 09:00:00 9.2 5 Sudeste 37 Sudeste 0 -- -- 74
2019-11-24 08:00:00 8.8 7 Sudeste 31 Sudeste 0 -- -- 73
2019-11-24 07:00:00 8.9 7 Sudeste 38 Sudeste 0 -- -- 71
2019-11-24 06:00:00 9 9 Sur 35 Sudeste 0 -- -- 71
2019-11-24 05:00:00 8.8 10 Sur 39 Sur 0 -- -- 73
2019-11-24 04:00:00 8.8 9 Sudeste 36 Sudeste 0 -- -- 73
2019-11-24 03:00:00 8.9 8 Sudeste 40 Sur 0 -- -- 73
2019-11-24 02:00:00 9 9 Sudeste 38 Sur 0.1 -- -- 73
2019-11-24 01:00:00 9.1 8 Sudeste 30 Sudeste 0 -- -- 72
2019-11-24 00:00:00 9.2 8 Sudeste 33 Sudeste 0 -- -- 71
2019-11-23 23:00:00 9.5 7 Sudeste 35 Sudeste 0 -- -- 65
2019-11-23 22:00:00 9.7 8 Sudeste 48 Sudeste 0 -- -- 66
2019-11-23 21:00:00 9.9 9 Sudeste 50 Sur 0 -- -- 63
2019-11-23 20:00:00 9.9 12 Sudeste 40 Sur 0 -- -- 61
2019-11-23 19:00:00 9.7 10 Sudeste 48 Sudeste 0 -- -- 67
2019-11-23 18:00:00 9.6 9 Sudeste 53 Sudoeste 0 -- -- 67
2019-11-23 17:00:00 9.2 10 Sudeste 60 Sur 0.6 -- -- 72
2019-11-23 16:00:00 9.1 8 Sudeste 33 Sudeste 0 -- -- 76
2019-11-23 15:00:00 9.1 7 Sudeste 44 Sudeste 0 -- -- 86
2019-11-23 14:00:00 9 6 Sur 25 Sur 0.2 -- -- 87
2019-11-23 13:00:00 8.6 6 Sur 29 Sur 8.3 -- -- 87
2019-11-23 12:00:00 12.7 4 Sudeste 25 Sudeste 0.1 -- -- 71
2019-11-23 11:00:00 12.5 4 Sur 22 Oeste 0 -- -- 69
2019-11-23 10:00:00 12.2 2 Sur 29 Oeste 0 -- -- 59
2019-11-23 09:00:00 12 8 Sudoeste 48 Sudoeste 0 -- -- 58
2019-11-23 08:00:00 11 13 Oeste 46 Sudoeste 0 -- -- 59
2019-11-23 07:00:00 11.1 10 Sudoeste 48 Sudeste 0 -- -- 61
2019-11-23 06:00:00 10.6 10 Oeste 38 Sur 0 -- -- 68
2019-11-23 05:00:00 10.4 5 Oeste 39 Oeste 0.1 -- -- 74
2019-11-23 04:00:00 10.2 10 Oeste 27 Oeste 0 -- -- 83
2019-11-23 03:00:00 11.7 8 Oeste 31 Sudoeste 0.4 -- -- 89
2019-11-23 02:00:00 11.8 4 Nordeste 29 Sudoeste 4.6 -- -- 87
2019-11-23 01:00:00 12.4 0 Calma 37 Sur 13.5 -- -- 89
2019-11-23 00:00:00 12.3 9 Sudeste 32 Sudeste 16.9 -- -- 89
2019-11-22 23:00:00 12 3 Este 44 Sur 17.8 -- -- 89
2019-11-22 22:00:00 11.9 11 Sudeste 46 Sudoeste 8.8 -- -- 89
2019-11-22 21:00:00 12 9 Sur 51 Sudeste 7.7 -- -- 89
2019-11-22 20:00:00 12 7 Sur 50 Sur 3 -- -- 89
2019-11-22 19:00:00 12.1 11 Sur 37 Sudoeste 7.7 -- -- 89
2019-11-22 18:00:00 12.2 9 Sur 42 Sur 2.3 -- -- 88
2019-11-22 17:00:00 12.4 10 Sudeste 38 Sur 0.7 -- -- 86
2019-11-22 16:00:00 12.5 10 Sur 33 Sur 0.6 -- -- 84
2019-11-22 15:00:00 13 5 Sur 35 Sudoeste 0.1 -- -- 78
2019-11-22 14:00:00 13.2 7 Sur 27 Sur 0 -- -- 75
2019-11-22 13:00:00 13.8 0 Calma 25 Sudeste 0 -- -- 75
2019-11-22 12:00:00 13.4 3 Sudeste -- -- -- -- -- 74
2019-11-22 11:00:00 -- -- -- -- -- -- -- -- --
2019-11-22 10:00:00 -- -- -- -- -- -- -- -- --
2019-11-22 09:00:00 -- -- -- -- -- -- -- -- --
2019-11-22 08:00:00 -- -- -- -- -- -- -- -- --
2019-11-22 07:00:00 -- -- -- -- -- -- -- -- --
2019-11-22 06:00:00 -- -- -- -- -- -- -- -- --
2019-11-22 05:00:00 -- -- -- -- -- -- -- -- --
2019-11-22 04:00:00 -- -- -- -- -- -- -- -- --
2019-11-22 03:00:00 -- -- -- -- -- -- -- -- --
2019-11-22 02:00:00 -- -- -- -- -- -- -- -- --
2019-11-22 01:00:00 -- -- -- -- -- -- -- -- --
2019-11-22 00:00:00 -- -- -- -- -- -- -- -- --
2019-11-21 23:00:00 -- -- -- -- -- -- -- -- --
2019-11-21 22:00:00 -- -- -- -- -- -- -- -- --
2019-11-21 21:00:00 -- -- -- -- -- -- -- -- --
2019-11-21 20:00:00 -- -- -- -- -- -- -- -- --
2019-11-21 19:00:00 -- -- -- -- -- -- -- -- --
2019-11-21 18:00:00 -- -- -- -- -- -- -- -- --
2019-11-21 17:00:00 -- -- -- -- -- -- -- -- --
2019-11-21 16:00:00 -- -- -- -- -- -- -- -- --
2019-11-21 15:00:00 -- -- -- -- -- -- -- -- --
2019-11-21 14:00:00 -- -- -- -- -- -- -- -- --
2019-11-21 13:00:00 -- -- -- -- -- -- -- -- --
2019-11-21 12:00:00 -- -- -- -- -- -- -- -- --
2019-11-21 11:00:00 -- -- -- -- -- -- -- -- --
2019-11-21 10:00:00 -- -- -- -- -- -- -- -- --
2019-11-21 09:00:00 -- -- -- -- -- -- -- -- --
2019-11-21 08:00:00 -- -- -- -- -- -- -- -- --
2019-11-21 07:00:00 -- -- -- -- -- -- -- -- --
2019-11-21 06:00:00 -- -- -- -- -- -- -- -- --
2019-11-21 05:00:00 -- -- -- -- -- -- -- -- --
2019-11-21 04:00:00 -- -- -- -- -- -- -- -- --
2019-11-21 03:00:00 -- -- -- -- -- -- -- -- --
2019-11-21 02:00:00 -- -- -- -- -- -- -- -- --
2019-11-21 01:00:00 -- -- -- -- -- -- -- -- --
2019-11-21 00:00:00 -- -- -- -- -- -- -- -- --
2019-11-20 23:00:00 -- -- -- -- -- -- -- -- --
2019-11-20 22:00:00 -- -- -- -- -- -- -- -- --
2019-11-20 21:00:00 -- -- -- -- -- -- -- -- --
2019-11-20 20:00:00 -- -- -- -- -- -- -- -- --
2019-11-20 19:00:00 -- -- -- -- -- -- -- -- --
2019-11-20 18:00:00 -- -- -- -- -- -- -- -- --
2019-11-20 17:00:00 -- -- -- -- -- -- -- -- --
2019-11-20 16:00:00 -- -- -- -- -- -- -- -- --
2019-11-20 15:00:00 -- -- -- -- -- -- -- -- --
2019-11-20 14:00:00 -- -- -- -- -- -- -- -- --
2019-11-20 13:00:00 -- -- -- -- -- -- -- -- --
2019-11-20 12:00:00 11.2 4 Sur 17 Sudoeste 0 -- -- 63
2019-11-20 11:00:00 9.2 6 Sur 19 Sur 0 -- -- 73
2019-11-20 10:00:00 6.4 6 Sur 20 Sur 0 -- -- 90
2019-11-20 09:00:00 3.9 0 Calma 11 Sur 0 -- -- 90
2019-11-20 08:00:00 0.8 0 Calma 2 Este 0 -- -- 90
2019-11-20 07:00:00 0.8 0 Calma 10 Sudoeste 0 -- -- 90
2019-11-20 06:00:00 -0.3 0 Calma -- -- 0 -- -- 90
2019-11-20 05:00:00 0 0 Calma -- -- 0 -- -- 90
2019-11-20 04:00:00 0.1 0 Calma -- -- 0 -- -- 90
2019-11-20 03:00:00 -0.3 0 Calma -- -- 0 -- -- 90
2019-11-20 02:00:00 -0.4 0 Calma -- -- 0 -- -- 90
2019-11-20 01:00:00 -0.2 0 Calma -- -- 0 -- -- 90
2019-11-20 00:00:00 0 0 Calma -- -- 0 -- -- 90
2019-11-19 23:00:00 0.3 0 Calma -- -- 0 -- -- 90
2019-11-19 22:00:00 0.8 0 Calma -- -- 0 -- -- 89
2019-11-19 21:00:00 1.3 0 Calma -- -- 0 -- -- 89
2019-11-19 20:00:00 1.9 0 Calma -- -- 0 -- -- 88
2019-11-19 19:00:00 2.9 0 Calma -- -- 0 -- -- 87
2019-11-19 18:00:00 4.1 0 Calma -- -- 0 -- -- 85
2019-11-19 17:00:00 6 0 Calma -- -- 0 -- -- 81
2019-11-19 16:00:00 7.7 0 Calma 14 Sudoeste 0 -- -- 73
2019-11-19 15:00:00 10.7 2 Sudoeste 11 Sudoeste 0 -- -- 58
2019-11-19 14:00:00 9.7 0 Calma 13 Sur 0 -- -- 59
2019-11-19 13:00:00 9.6 3 Sur 12 Sur 0 -- -- 68
2019-11-19 12:00:00 8.4 0 Calma 13 Sudeste 0 -- -- 75
2019-11-19 11:00:00 8.8 4 Sudeste 11 Sur 0 -- -- 72
2019-11-19 10:00:00 8.6 0 Calma 6 Sudoeste 0 -- -- 89
2019-11-19 09:00:00 4.6 0 Calma 8 Sudoeste 0 -- -- 90
2019-11-19 08:00:00 2 0 Calma -- -- 0 -- -- 90
2019-11-19 07:00:00 2 0 Calma -- -- 0 -- -- 90
2019-11-19 06:00:00 2.4 0 Calma -- -- 0 -- -- 90
2019-11-19 05:00:00 3.4 0 Calma -- -- 0 -- -- 90
2019-11-19 04:00:00 4.9 0 Calma -- -- 0 -- -- 90
2019-11-19 03:00:00 5.3 0 Calma 3 Sudoeste 0.1 -- -- 89
2019-11-19 02:00:00 5.8 0 Calma 8 Sudeste 0 -- -- 89
2019-11-19 01:00:00 6 0 Calma 16 Este 0.5 -- -- 89
2019-11-19 00:00:00 6 4 Sudeste 20 Este 0.7 -- -- 88
2019-11-18 23:00:00 6.3 5 Este 20 Este 1.4 -- -- 85
2019-11-18 22:00:00 7.8 0 Calma 18 Sudoeste 0 -- -- 66
2019-11-18 21:00:00 7.6 5 Nordeste 19 Nordeste 0 -- -- 68
2019-11-18 20:00:00 7 3 Nordeste 26 Nordeste 0 -- -- 69
2019-11-18 19:00:00 7.1 6 Nordeste 27 Norte 0 -- -- 72
2019-11-18 18:00:00 7 5 Este 22 Norte 0.3 -- -- 80
2019-11-18 17:00:00 7.3 4 Nordeste 30 Nordeste 0 -- -- 78
2019-11-18 16:00:00 7.4 6 Este 28 Este 0.2 -- -- 86
2019-11-18 15:00:00 7.7 2 Nordeste 24 Este 1.3 -- -- 87
2019-11-18 14:00:00 8.1 5 Nordeste 24 Nordeste 0.6 -- -- 87
2019-11-18 13:00:00 8.4 8 Este 26 Norte 1.1 -- -- 86
2019-11-18 12:00:00 9.1 0 Calma 17 Sudeste 0 -- -- 79
2019-11-18 11:00:00 8.7 3 Sur 19 Sudeste 0 -- -- 80
2019-11-18 10:00:00 8.2 4 Sur 23 Sur 0 -- -- 82
2019-11-18 09:00:00 7.9 5 Sudeste 23 Sudeste 1.9 -- -- 88
2019-11-18 08:00:00 7.7 5 Sudeste 24 Sur 6.3 -- -- 90
2019-11-18 07:00:00 8 0 Calma 12 Sudoeste 0.5 -- -- 90
2019-11-18 06:00:00 8.1 0 Calma 8 Sudoeste 2.8 -- -- 90
2019-11-18 05:00:00 7.9 0 Calma -- -- 0.4 -- -- 89
2019-11-18 04:00:00 8.2 0 Calma 5 Nordeste 1.1 -- -- 89
2019-11-18 03:00:00 8.6 0 Calma 19 Oeste 0.3 -- -- 88
2019-11-18 02:00:00 8.9 0 Calma 17 Noroeste 0.3 -- -- 86
2019-11-18 01:00:00 9.4 6 Oeste 26 Sudoeste 0 -- -- 79
2019-11-18 00:00:00 9.2 0 Calma 17 Este 0 -- -- 81
2019-11-17 23:00:00 9 0 Calma 25 Oeste 0 -- -- 71
2019-11-17 22:00:00 9.7 6 Sudoeste 25 Oeste 0 -- -- 66
2019-11-17 21:00:00 8.6 5 Oeste 27 Oeste 0 -- -- 77
2019-11-17 20:00:00 7.3 4 Sudoeste 22 Sur 0 -- -- 84
2019-11-17 19:00:00 5.3 0 Calma 7 Sudoeste 0 -- -- 86
2019-11-17 18:00:00 5.8 0 Calma 7 Este 0 -- -- 83
2019-11-17 17:00:00 7 0 Calma 8 Nordeste 0 -- -- 78
2019-11-17 16:00:00 8.7 0 Calma 10 Sur 0 -- -- 69
2019-11-17 15:00:00 9.7 0 Calma 16 Sudeste 0 -- -- 61
2019-11-17 14:00:00 -- -- -- -- -- -- -- -- --
2019-11-17 13:00:00 -- -- -- -- -- -- -- -- --
2019-11-17 12:00:00 -- -- -- -- -- -- -- -- --
2019-11-17 11:00:00 -- -- -- -- -- -- -- -- --
2019-11-17 10:00:00 -- -- -- -- -- -- -- -- --
2019-11-17 09:00:00 -- -- -- -- -- -- -- -- --
2019-11-17 08:00:00 -- -- -- -- -- -- -- -- --
2019-11-17 07:00:00 -- -- -- -- -- -- -- -- --
2019-11-17 06:00:00 -- -- -- -- -- -- -- -- --
2019-11-17 05:00:00 -- -- -- -- -- -- -- -- --
2019-11-17 04:00:00 -- -- -- -- -- -- -- -- --
2019-11-17 03:00:00 -- -- -- -- -- -- -- -- --
2019-11-17 02:00:00 -- -- -- -- -- -- -- -- --
2019-11-17 01:00:00 -- -- -- -- -- -- -- -- --
2019-11-17 00:00:00 -- -- -- -- -- -- -- -- --
2019-11-16 23:00:00 -- -- -- -- -- -- -- -- --
2019-11-16 22:00:00 -- -- -- -- -- -- -- -- --
2019-11-16 21:00:00 -- -- -- -- -- -- -- -- --
2019-11-16 20:00:00 -- -- -- -- -- -- -- -- --
2019-11-16 19:00:00 -- -- -- -- -- -- -- -- --
2019-11-16 18:00:00 -- -- -- -- -- -- -- -- --
2019-11-16 17:00:00 -- -- -- -- -- -- -- -- --
2019-11-16 16:00:00 -- -- -- -- -- -- -- -- --
2019-11-16 15:00:00 -- -- -- -- -- -- -- -- --
2019-11-16 14:00:00 -- -- -- -- -- -- -- -- --
2019-11-16 13:00:00 -- -- -- -- -- -- -- -- --
2019-11-16 12:00:00 -- -- -- -- -- -- -- -- --
2019-11-16 11:00:00 -- -- -- -- -- -- -- -- --
2019-11-16 10:00:00 -- -- -- -- -- -- -- -- --
2019-11-16 09:00:00 -- -- -- -- -- -- -- -- --
2019-11-16 08:00:00 -- -- -- -- -- -- -- -- --
2019-11-16 07:00:00 -- -- -- -- -- -- -- -- --
2019-11-16 06:00:00 -- -- -- -- -- -- -- -- --
2019-11-16 05:00:00 -- -- -- -- -- -- -- -- --
2019-11-16 04:00:00 -- -- -- -- -- -- -- -- --
2019-11-16 03:00:00 -- -- -- -- -- -- -- -- --
2019-11-16 02:00:00 -- -- -- -- -- -- -- -- --
2019-11-16 01:00:00 -- -- -- -- -- -- -- -- --
2019-11-16 00:00:00 -- -- -- -- -- -- -- -- --
2019-11-15 23:00:00 -- -- -- -- -- -- -- -- --
2019-11-15 22:00:00 -- -- -- -- -- -- -- -- --
2019-11-15 21:00:00 -- -- -- -- -- -- -- -- --
2019-11-15 20:00:00 -- -- -- -- -- -- -- -- --
2019-11-15 19:00:00 -- -- -- -- -- -- -- -- --
2019-11-15 18:00:00 -- -- -- -- -- -- -- -- --
2019-11-15 17:00:00 -- -- -- -- -- -- -- -- --
2019-11-15 16:00:00 -- -- -- -- -- -- -- -- --
2019-11-15 15:00:00 -- -- -- -- -- -- -- -- --
2019-11-15 14:00:00 -- -- -- -- -- -- -- -- --
2019-11-15 13:00:00 -- -- -- -- -- -- -- -- --
2019-11-15 12:00:00 -- -- -- -- -- -- -- -- --
2019-11-15 11:00:00 -- -- -- -- -- -- -- -- --
2019-11-15 10:00:00 -- -- -- -- -- -- -- -- --
2019-11-15 09:00:00 -- -- -- -- -- -- -- -- --
2019-11-15 08:00:00 -- -- -- -- -- -- -- -- --
2019-11-15 07:00:00 -- -- -- -- -- -- -- -- --
2019-11-15 06:00:00 -- -- -- -- -- -- -- -- --
2019-11-15 05:00:00 -- -- -- -- -- -- -- -- --
2019-11-15 04:00:00 -- -- -- -- -- -- -- -- --
2019-11-15 03:00:00 -- -- -- -- -- -- -- -- --
2019-11-15 02:00:00 -- -- -- -- -- -- -- -- --
2019-11-15 01:00:00 -- -- -- -- -- -- -- -- --
2019-11-15 00:00:00 -- -- -- -- -- -- -- -- --